Airfield :







YOU CAN JOIN US ON...

 
LOGIN :

Register | Disclaimer

   EN    FR    IT 

 









Legend :    VFR   Marginal VFR   IFR   Intensive IFR   Very Intensive IFR
Visi :
Ceiling :
>= 8 km
>= 3000ft
5 to 8 km
1000 to 3000 ft
1500m to 5 km
500 to 1000 ft
800 to 1500m
200 to 500 ft
< 800m
< 200 ft
Symbols :   Thunderstorms  Fog  Heavy snow  Heavy precipitations  Wind > 20 kt







- Airport Elevation : 167 ft
- IATA code : YAW


CYAW - CFB Shearwater

CURRENT METAR :
  • 251300Z 29012G20KT 15SM OVC010 04/03 A2971 RMK SF8 DA-829FT SLP063

EXPIRED METARs :
  • 251200Z 31017G22KT 15SM OVC010 03/02 A2969 RMK SF8 DA-882FT SLP057
  • 251100Z 30014G19KT 15SM BKN006 OVC010 03/02 A2968 RMK SF6ST2 DA-946FT SLP053

TAF TAF CYAW
Valid from the 25 at 12:00 until the 26 at 00:00 UTC


251130Z 2512/2524 29012G22KT P6SM BKN004 OVC010
TEMPO 2512/2514 SCT004 OVC010
FM251400 30012G22KT P6SM OVC015
TEMPO 2514/2516 OVC008
FM251600 30015G25KT P6SM BKN020
TEMPO 2516/2522 BKN025 RMK NXT FCST BY 251800Z
CZQM FIR / North America



MET'MAP, your aeronautical weather chart ! - Copyright ORBIFLY December 2007 - Disclaimer

ORBIFLY MET'MAP TEAM :

Programming & Development : Alexandra Zaïnal
Concept & Development : Baudouin d'Aumeries
Co-Development & Prog : Marc-Olivier Méhu
Technical & hardware support : Manuel Goepfert

Contact : metmap@orbifly.com




SOURCES & CREDITS :

   NOAA